sensor_id;sensor_type;location;lat;lon;timestamp;temperature;humidity
78522;SHT31;67819;51.972;5.678;2023-03-03T18:16:21;9.8;45.9
78522;SHT31;67819;51.972;5.678;2023-03-03T18:19:07;9.4;47.0
78522;SHT31;67819;51.972;5.678;2023-03-03T18:21:43;9.2;47.2
78522;SHT31;67819;51.972;5.678;2023-03-03T18:24:29;9.1;47.9
78522;SHT31;67819;51.972;5.678;2023-03-03T18:27:30;9.0;48.1
78522;SHT31;67819;51.972;5.678;2023-03-03T18:30:17;8.9;48.7
78522;SHT31;67819;51.972;5.678;2023-03-03T18:33:06;8.9;49.3
78522;SHT31;67819;51.972;5.678;2023-03-03T18:35:39;8.7;50.0
78522;SHT31;67819;51.972;5.678;2023-03-03T18:38:26;8.6;50.5
78522;SHT31;67819;51.972;5.678;2023-03-03T18:41:00;8.4;51.1
78522;SHT31;67819;51.972;5.678;2023-03-03T18:50:15;8.3;52.8
78522;SHT31;67819;51.972;5.678;2023-03-03T18:53:11;8.3;52.9
78522;SHT31;67819;51.972;5.678;2023-03-03T18:55:44;8.2;52.5
78522;SHT31;67819;51.972;5.678;2023-03-03T18:58:36;8.2;52.5
78522;SHT31;67819;51.972;5.678;2023-03-03T19:03:26;8.2;52.6
78522;SHT31;67819;51.972;5.678;2023-03-03T19:05:57;8.1;52.7
78522;SHT31;67819;51.972;5.678;2023-03-03T19:08:29;8.0;53.0
78522;SHT31;67819;51.972;5.678;2023-03-03T19:11:04;7.9;53.3
78522;SHT31;67819;51.972;5.678;2023-03-03T19:13:40;7.9;53.5
78522;SHT31;67819;51.972;5.678;2023-03-03T19:16:30;7.8;53.8
78522;SHT31;67819;51.972;5.678;2023-03-03T19:19:10;7.8;54.2
78522;SHT31;67819;51.972;5.678;2023-03-03T19:21:41;7.7;54.6
78522;SHT31;67819;51.972;5.678;2023-03-03T19:24:33;7.7;54.9
78522;SHT31;67819;51.972;5.678;2023-03-03T19:27:15;7.7;55.3
78522;SHT31;67819;51.972;5.678;2023-03-03T19:30:38;7.7;55.1
78522;SHT31;67819;51.972;5.678;2023-03-03T19:33:35;7.7;55.1
78522;SHT31;67819;51.972;5.678;2023-03-03T19:37:21;7.7;55.2
78522;SHT31;67819;51.972;5.678;2023-03-03T19:40:06;7.7;54.9
78522;SHT31;67819;51.972;5.678;2023-03-03T19:42:47;7.7;55.2
78522;SHT31;67819;51.972;5.678;2023-03-03T19:45:25;7.6;55.4
78522;SHT31;67819;51.972;5.678;2023-03-03T19:48:04;7.7;55.2
78522;SHT31;67819;51.972;5.678;2023-03-03T19:50:45;7.7;55.3
78522;SHT31;67819;51.972;5.678;2023-03-03T19:53:30;7.7;55.0
78522;SHT31;67819;51.972;5.678;2023-03-03T19:56:22;7.6;55.3
78522;SHT31;67819;51.972;5.678;2023-03-03T19:59:15;7.6;55.7
78522;SHT31;67819;51.972;5.678;2023-03-03T20:01:58;7.7;55.3
78522;SHT31;67819;51.972;5.678;2023-03-03T20:04:47;7.7;55.4
78522;SHT31;67819;51.972;5.678;2023-03-03T20:07:26;7.7;55.4
78522;SHT31;67819;51.972;5.678;2023-03-03T20:10:07;7.7;55.5
78522;SHT31;67819;51.972;5.678;2023-03-03T20:12:54;7.8;55.3
78522;SHT31;67819;51.972;5.678;2023-03-03T20:15:39;7.8;55.2
78522;SHT31;67819;51.972;5.678;2023-03-03T20:18:34;7.8;55.5
78522;SHT31;67819;51.972;5.678;2023-03-03T20:21:13;7.8;55.5
78522;SHT31;67819;51.972;5.678;2023-03-03T20:24:00;7.8;55.7
78522;SHT31;67819;51.972;5.678;2023-03-03T20:26:41;7.8;56.1
78522;SHT31;67819;51.972;5.678;2023-03-03T20:29:27;7.8;55.9
78522;SHT31;67819;51.972;5.678;2023-03-03T20:32:10;7.9;55.7
78522;SHT31;67819;51.972;5.678;2023-03-03T20:34:52;7.9;55.8
78522;SHT31;67819;51.972;5.678;2023-03-03T20:37:34;7.9;56.0
78522;SHT31;67819;51.972;5.678;2023-03-03T20:40:17;7.9;55.8
78522;SHT31;67819;51.972;5.678;2023-03-03T20:43:03;8.0;55.8
78522;SHT31;67819;51.972;5.678;2023-03-03T20:45:48;8.0;55.8
78522;SHT31;67819;51.972;5.678;2023-03-03T20:48:39;8.0;55.5
78522;SHT31;67819;51.972;5.678;2023-03-03T20:51:22;8.0;55.6
78522;SHT31;67819;51.972;5.678;2023-03-03T20:54:04;8.0;55.4
78522;SHT31;67819;51.972;5.678;2023-03-03T20:56:44;8.0;55.4
78522;SHT31;67819;51.972;5.678;2023-03-03T20:59:26;8.0;55.7
78522;SHT31;67819;51.972;5.678;2023-03-03T21:02:10;8.0;56.0
78522;SHT31;67819;51.972;5.678;2023-03-03T21:04:43;8.0;56.1
78522;SHT31;67819;51.972;5.678;2023-03-03T21:07:24;8.0;56.1
78522;SHT31;67819;51.972;5.678;2023-03-03T21:10:10;8.0;56.5
78522;SHT31;67819;51.972;5.678;2023-03-03T21:12:42;8.0;56.4
78522;SHT31;67819;51.972;5.678;2023-03-03T21:15:26;8.0;56.4
78522;SHT31;67819;51.972;5.678;2023-03-03T21:17:58;8.1;56.3
78522;SHT31;67819;51.972;5.678;2023-03-03T21:20:31;8.2;56.2
78522;SHT31;67819;51.972;5.678;2023-03-03T21:23:01;8.2;56.1
78522;SHT31;67819;51.972;5.678;2023-03-03T21:25:46;8.2;56.0
78522;SHT31;67819;51.972;5.678;2023-03-03T21:28:18;8.3;55.9
78522;SHT31;67819;51.972;5.678;2023-03-03T21:31:06;8.3;55.5
78522;SHT31;67819;51.972;5.678;2023-03-03T21:33:44;8.3;55.1
78522;SHT31;67819;51.972;5.678;2023-03-03T21:36:16;8.2;55.4
78522;SHT31;67819;51.972;5.678;2023-03-03T21:38:46;8.2;55.6
78522;SHT31;67819;51.972;5.678;2023-03-03T21:41:17;8.1;55.7
78522;SHT31;67819;51.972;5.678;2023-03-03T21:43:48;8.1;55.8
78522;SHT31;67819;51.972;5.678;2023-03-03T21:46:20;8.1;56.0
78522;SHT31;67819;51.972;5.678;2023-03-03T21:48:51;8.1;56.1
78522;SHT31;67819;51.972;5.678;2023-03-03T21:51:20;8.1;56.2
78522;SHT31;67819;51.972;5.678;2023-03-03T21:53:51;8.1;56.1
78522;SHT31;67819;51.972;5.678;2023-03-03T21:56:21;8.1;56.0
78522;SHT31;67819;51.972;5.678;2023-03-03T21:58:53;8.1;56.2
78522;SHT31;67819;51.972;5.678;2023-03-03T22:01:22;8.1;56.3
78522;SHT31;67819;51.972;5.678;2023-03-03T22:03:52;8.1;56.4
78522;SHT31;67819;51.972;5.678;2023-03-03T22:06:21;8.1;56.4
78522;SHT31;67819;51.972;5.678;2023-03-03T22:08:51;8.1;56.6
78522;SHT31;67819;51.972;5.678;2023-03-03T22:11:21;8.1;56.7
78522;SHT31;67819;51.972;5.678;2023-03-03T22:13:50;8.2;56.7
78522;SHT31;67819;51.972;5.678;2023-03-03T22:16:20;8.2;56.4
78522;SHT31;67819;51.972;5.678;2023-03-03T22:18:50;8.3;56.2
78522;SHT31;67819;51.972;5.678;2023-03-03T22:21:22;8.3;56.3
78522;SHT31;67819;51.972;5.678;2023-03-03T22:23:52;8.3;56.3
78522;SHT31;67819;51.972;5.678;2023-03-03T22:26:21;8.3;56.3
78522;SHT31;67819;51.972;5.678;2023-03-03T22:28:53;8.3;56.4
78522;SHT31;67819;51.972;5.678;2023-03-03T22:31:23;8.3;56.3
78522;SHT31;67819;51.972;5.678;2023-03-03T22:33:54;8.3;56.0
78522;SHT31;67819;51.972;5.678;2023-03-03T22:36:24;8.3;55.3
78522;SHT31;67819;51.972;5.678;2023-03-03T22:38:53;8.2;54.8
78522;SHT31;67819;51.972;5.678;2023-03-03T22:41:23;8.2;54.4
78522;SHT31;67819;51.972;5.678;2023-03-03T22:43:53;8.1;54.7
78522;SHT31;67819;51.972;5.678;2023-03-03T22:46:22;8.0;55.3
78522;SHT31;67819;51.972;5.678;2023-03-03T22:48:52;7.9;55.5
78522;SHT31;67819;51.972;5.678;2023-03-03T22:51:22;7.9;55.9
78522;SHT31;67819;51.972;5.678;2023-03-03T22:53:52;7.8;56.2
78522;SHT31;67819;51.972;5.678;2023-03-03T22:56:22;7.8;56.5
78522;SHT31;67819;51.972;5.678;2023-03-03T22:58:51;7.8;56.7
78522;SHT31;67819;51.972;5.678;2023-03-03T23:01:21;7.8;57.0
78522;SHT31;67819;51.972;5.678;2023-03-03T23:03:50;7.8;57.0
78522;SHT31;67819;51.972;5.678;2023-03-03T23:06:20;7.8;56.9
78522;SHT31;67819;51.972;5.678;2023-03-03T23:08:50;7.8;56.9
78522;SHT31;67819;51.972;5.678;2023-03-03T23:11:19;7.8;56.9
78522;SHT31;67819;51.972;5.678;2023-03-03T23:13:52;7.8;56.8
78522;SHT31;67819;51.972;5.678;2023-03-03T23:16:24;7.8;57.0
78522;SHT31;67819;51.972;5.678;2023-03-03T23:18:56;7.8;56.7
78522;SHT31;67819;51.972;5.678;2023-03-03T23:21:25;7.7;57.0
78522;SHT31;67819;51.972;5.678;2023-03-03T23:23:55;7.7;57.2
78522;SHT31;67819;51.972;5.678;2023-03-03T23:26:25;7.7;57.2
78522;SHT31;67819;51.972;5.678;2023-03-03T23:28:54;7.7;57.3
78522;SHT31;67819;51.972;5.678;2023-03-03T23:31:26;7.7;57.3
78522;SHT31;67819;51.972;5.678;2023-03-03T23:33:56;7.7;57.4
78522;SHT31;67819;51.972;5.678;2023-03-03T23:36:26;7.7;57.8
78522;SHT31;67819;51.972;5.678;2023-03-03T23:38:55;7.7;57.8
78522;SHT31;67819;51.972;5.678;2023-03-03T23:41:25;7.7;57.5
78522;SHT31;67819;51.972;5.678;2023-03-03T23:43:54;7.7;57.8
78522;SHT31;67819;51.972;5.678;2023-03-03T23:46:24;7.7;57.7
78522;SHT31;67819;51.972;5.678;2023-03-03T23:48:54;7.7;57.6
78522;SHT31;67819;51.972;5.678;2023-03-03T23:51:24;7.7;57.3
78522;SHT31;67819;51.972;5.678;2023-03-03T23:53:54;7.7;57.3
78522;SHT31;67819;51.972;5.678;2023-03-03T23:56:24;7.7;57.3
78522;SHT31;67819;51.972;5.678;2023-03-03T23:58:53;7.7;57.0
